sensor_id;sensor_type;location;lat;lon;timestamp;P1;durP1;ratioP1;P2;durP2;ratioP2
51312;SDS011;37397;53.226;10.400;2023-05-14T00:00:20;8.18;;;4.63;;
51312;SDS011;37397;53.226;10.400;2023-05-14T00:02:47;8.93;;;4.60;;
51312;SDS011;37397;53.226;10.400;2023-05-14T00:05:14;8.13;;;5.05;;
51312;SDS011;37397;53.226;10.400;2023-05-14T00:07:40;8.07;;;4.47;;
51312;SDS011;37397;53.226;10.400;2023-05-14T00:10:07;7.63;;;4.90;;
51312;SDS011;37397;53.226;10.400;2023-05-14T00:12:34;7.10;;;4.75;;
51312;SDS011;37397;53.226;10.400;2023-05-14T00:15:00;8.63;;;4.55;;
51312;SDS011;37397;53.226;10.400;2023-05-14T00:17:27;8.20;;;5.00;;
51312;SDS011;37397;53.226;10.400;2023-05-14T00:19:54;8.27;;;5.15;;
51312;SDS011;37397;53.226;10.400;2023-05-14T00:22:21;7.85;;;4.35;;
51312;SDS011;37397;53.226;10.400;2023-05-14T00:24:47;6.88;;;5.18;;
51312;SDS011;37397;53.226;10.400;2023-05-14T00:27:13;7.93;;;4.85;;
51312;SDS011;37397;53.226;10.400;2023-05-14T00:29:40;7.90;;;4.82;;
51312;SDS011;37397;53.226;10.400;2023-05-14T00:32:06;6.53;;;4.65;;
51312;SDS011;37397;53.226;10.400;2023-05-14T00:34:33;7.20;;;4.78;;
51312;SDS011;37397;53.226;10.400;2023-05-14T00:37:00;8.98;;;5.05;;
51312;SDS011;37397;53.226;10.400;2023-05-14T00:39:27;7.18;;;4.75;;
51312;SDS011;37397;53.226;10.400;2023-05-14T00:41:53;6.93;;;4.50;;
51312;SDS011;37397;53.226;10.400;2023-05-14T00:44:19;8.88;;;5.00;;
51312;SDS011;37397;53.226;10.400;2023-05-14T00:46:46;7.80;;;4.70;;
51312;SDS011;37397;53.226;10.400;2023-05-14T00:49:12;8.55;;;5.38;;
51312;SDS011;37397;53.226;10.400;2023-05-14T00:51:39;7.18;;;4.78;;
51312;SDS011;37397;53.226;10.400;2023-05-14T00:54:07;6.78;;;4.50;;
51312;SDS011;37397;53.226;10.400;2023-05-14T00:56:34;7.65;;;4.72;;
51312;SDS011;37397;53.226;10.400;2023-05-14T00:59:01;8.68;;;5.22;;
51312;SDS011;37397;53.226;10.400;2023-05-14T01:01:27;8.50;;;4.75;;
51312;SDS011;37397;53.226;10.400;2023-05-14T01:03:54;7.88;;;4.55;;
51312;SDS011;37397;53.226;10.400;2023-05-14T01:06:25;6.97;;;4.60;;
51312;SDS011;37397;53.226;10.400;2023-05-14T01:09:04;10.00;;;4.95;;
51312;SDS011;37397;53.226;10.400;2023-05-14T01:11:57;7.30;;;4.57;;
51312;SDS011;37397;53.226;10.400;2023-05-14T01:14:32;9.70;;;4.45;;
51312;SDS011;37397;53.226;10.400;2023-05-14T01:17:02;7.55;;;4.53;;
51312;SDS011;37397;53.226;10.400;2023-05-14T01:22:07;8.05;;;5.00;;
51312;SDS011;37397;53.226;10.400;2023-05-14T01:24:33;7.88;;;5.00;;
51312;SDS011;37397;53.226;10.400;2023-05-14T01:29:41;8.63;;;4.95;;
51312;SDS011;37397;53.226;10.400;2023-05-14T01:32:14;7.35;;;4.88;;
51312;SDS011;37397;53.226;10.400;2023-05-14T01:34:43;8.65;;;5.05;;
51312;SDS011;37397;53.226;10.400;2023-05-14T01:37:12;7.68;;;4.60;;
51312;SDS011;37397;53.226;10.400;2023-05-14T01:39:40;6.70;;;4.78;;
51312;SDS011;37397;53.226;10.400;2023-05-14T01:42:07;7.07;;;4.70;;
51312;SDS011;37397;53.226;10.400;2023-05-14T01:44:35;7.15;;;4.57;;
51312;SDS011;37397;53.226;10.400;2023-05-14T01:47:01;10.10;;;5.20;;
51312;SDS011;37397;53.226;10.400;2023-05-14T01:49:28;8.07;;;5.30;;
51312;SDS011;37397;53.226;10.400;2023-05-14T01:51:55;7.22;;;5.18;;
51312;SDS011;37397;53.226;10.400;2023-05-14T01:54:21;10.02;;;5.32;;
51312;SDS011;37397;53.226;10.400;2023-05-14T01:56:48;7.00;;;4.53;;
51312;SDS011;37397;53.226;10.400;2023-05-14T01:59:15;8.23;;;5.30;;
51312;SDS011;37397;53.226;10.400;2023-05-14T02:01:42;8.40;;;5.00;;
51312;SDS011;37397;53.226;10.400;2023-05-14T02:04:08;8.07;;;4.75;;
51312;SDS011;37397;53.226;10.400;2023-05-14T02:06:35;7.53;;;4.70;;
51312;SDS011;37397;53.226;10.400;2023-05-14T02:09:02;7.40;;;4.80;;
51312;SDS011;37397;53.226;10.400;2023-05-14T02:11:30;7.10;;;4.80;;
51312;SDS011;37397;53.226;10.400;2023-05-14T02:13:56;9.57;;;5.10;;
51312;SDS011;37397;53.226;10.400;2023-05-14T02:16:23;8.73;;;5.03;;
51312;SDS011;37397;53.226;10.400;2023-05-14T02:18:50;8.95;;;5.03;;
51312;SDS011;37397;53.226;10.400;2023-05-14T02:21:16;9.18;;;5.32;;
51312;SDS011;37397;53.226;10.400;2023-05-14T02:23:43;7.93;;;4.90;;
51312;SDS011;37397;53.226;10.400;2023-05-14T02:26:10;7.93;;;5.43;;
51312;SDS011;37397;53.226;10.400;2023-05-14T02:28:36;7.45;;;5.03;;
51312;SDS011;37397;53.226;10.400;2023-05-14T02:31:03;8.18;;;5.45;;
51312;SDS011;37397;53.226;10.400;2023-05-14T02:33:29;7.40;;;5.30;;
51312;SDS011;37397;53.226;10.400;2023-05-14T02:35:57;10.38;;;5.72;;
51312;SDS011;37397;53.226;10.400;2023-05-14T02:38:24;8.85;;;5.60;;
51312;SDS011;37397;53.226;10.400;2023-05-14T02:40:51;7.18;;;4.63;;
51312;SDS011;37397;53.226;10.400;2023-05-14T02:43:18;10.50;;;5.32;;
51312;SDS011;37397;53.226;10.400;2023-05-14T02:45:44;7.78;;;5.20;;
51312;SDS011;37397;53.226;10.400;2023-05-14T02:48:11;6.38;;;4.85;;
51312;SDS011;37397;53.226;10.400;2023-05-14T02:50:37;9.55;;;5.43;;
51312;SDS011;37397;53.226;10.400;2023-05-14T02:53:04;8.45;;;5.32;;
51312;SDS011;37397;53.226;10.400;2023-05-14T02:55:30;8.52;;;5.22;;
51312;SDS011;37397;53.226;10.400;2023-05-14T02:57:57;8.27;;;5.50;;
51312;SDS011;37397;53.226;10.400;2023-05-14T03:00:24;8.85;;;5.55;;
51312;SDS011;37397;53.226;10.400;2023-05-14T03:02:51;8.15;;;5.00;;
51312;SDS011;37397;53.226;10.400;2023-05-14T03:05:19;10.18;;;5.25;;
51312;SDS011;37397;53.226;10.400;2023-05-14T03:07:45;7.20;;;5.00;;
51312;SDS011;37397;53.226;10.400;2023-05-14T03:10:12;10.85;;;5.47;;
51312;SDS011;37397;53.226;10.400;2023-05-14T03:12:38;8.52;;;5.32;;
51312;SDS011;37397;53.226;10.400;2023-05-14T03:15:05;8.82;;;5.32;;
51312;SDS011;37397;53.226;10.400;2023-05-14T03:17:32;9.45;;;5.50;;
51312;SDS011;37397;53.226;10.400;2023-05-14T03:19:58;8.73;;;5.43;;
51312;SDS011;37397;53.226;10.400;2023-05-14T03:22:25;8.90;;;5.20;;
51312;SDS011;37397;53.226;10.400;2023-05-14T03:24:52;8.65;;;5.68;;
51312;SDS011;37397;53.226;10.400;2023-05-14T03:27:18;9.38;;;5.43;;
51312;SDS011;37397;53.226;10.400;2023-05-14T03:29:45;7.60;;;5.22;;
51312;SDS011;37397;53.226;10.400;2023-05-14T03:32:12;8.23;;;5.57;;
51312;SDS011;37397;53.226;10.400;2023-05-14T03:34:38;7.97;;;5.72;;
51312;SDS011;37397;53.226;10.400;2023-05-14T03:37:05;7.55;;;5.28;;
51312;SDS011;37397;53.226;10.400;2023-05-14T03:39:32;8.65;;;5.78;;
51312;SDS011;37397;53.226;10.400;2023-05-14T03:41:58;8.30;;;5.55;;
51312;SDS011;37397;53.226;10.400;2023-05-14T03:44:25;8.55;;;5.72;;
51312;SDS011;37397;53.226;10.400;2023-05-14T03:46:51;9.75;;;5.93;;
51312;SDS011;37397;53.226;10.400;2023-05-14T03:49:18;9.45;;;5.90;;
51312;SDS011;37397;53.226;10.400;2023-05-14T03:51:45;9.07;;;5.72;;
51312;SDS011;37397;53.226;10.400;2023-05-14T03:54:12;8.00;;;5.50;;
51312;SDS011;37397;53.226;10.400;2023-05-14T03:56:38;9.85;;;6.60;;
51312;SDS011;37397;53.226;10.400;2023-05-14T03:59:04;8.50;;;5.93;;
51312;SDS011;37397;53.226;10.400;2023-05-14T04:01:31;7.32;;;5.35;;
51312;SDS011;37397;53.226;10.400;2023-05-14T04:03:57;8.35;;;5.60;;
51312;SDS011;37397;53.226;10.400;2023-05-14T04:06:24;7.97;;;6.10;;
51312;SDS011;37397;53.226;10.400;2023-05-14T04:08:51;8.88;;;5.85;;
51312;SDS011;37397;53.226;10.400;2023-05-14T04:11:17;9.48;;;5.63;;
51312;SDS011;37397;53.226;10.400;2023-05-14T04:13:44;10.65;;;5.93;;
51312;SDS011;37397;53.226;10.400;2023-05-14T04:16:10;7.55;;;5.15;;
51312;SDS011;37397;53.226;10.400;2023-05-14T04:18:37;10.18;;;6.28;;
51312;SDS011;37397;53.226;10.400;2023-05-14T04:21:03;8.25;;;5.80;;
51312;SDS011;37397;53.226;10.400;2023-05-14T04:23:30;8.63;;;6.18;;
51312;SDS011;37397;53.226;10.400;2023-05-14T04:25:59;7.47;;;5.38;;
51312;SDS011;37397;53.226;10.400;2023-05-14T04:28:26;7.90;;;6.15;;
51312;SDS011;37397;53.226;10.400;2023-05-14T04:30:52;8.50;;;5.60;;
51312;SDS011;37397;53.226;10.400;2023-05-14T04:33:19;8.50;;;5.68;;
51312;SDS011;37397;53.226;10.400;2023-05-14T04:35:45;8.15;;;5.55;;
51312;SDS011;37397;53.226;10.400;2023-05-14T04:38:12;7.53;;;5.32;;
51312;SDS011;37397;53.226;10.400;2023-05-14T04:40:39;11.48;;;5.88;;
51312;SDS011;37397;53.226;10.400;2023-05-14T04:43:09;10.45;;;5.90;;
51312;SDS011;37397;53.226;10.400;2023-05-14T04:45:35;8.57;;;5.70;;
51312;SDS011;37397;53.226;10.400;2023-05-14T04:48:03;7.95;;;5.97;;
51312;SDS011;37397;53.226;10.400;2023-05-14T04:50:30;9.43;;;6.13;;
51312;SDS011;37397;53.226;10.400;2023-05-14T04:52:56;9.05;;;5.63;;
51312;SDS011;37397;53.226;10.400;2023-05-14T04:55:23;7.20;;;5.72;;
51312;SDS011;37397;53.226;10.400;2023-05-14T04:57:49;7.65;;;5.53;;
51312;SDS011;37397;53.226;10.400;2023-05-14T05:00:16;10.02;;;6.20;;
51312;SDS011;37397;53.226;10.400;2023-05-14T05:02:43;8.43;;;5.88;;
51312;SDS011;37397;53.226;10.400;2023-05-14T05:05:09;9.43;;;5.55;;
51312;SDS011;37397;53.226;10.400;2023-05-14T05:07:36;8.07;;;5.15;;
51312;SDS011;37397;53.226;10.400;2023-05-14T05:10:02;8.10;;;5.90;;
51312;SDS011;37397;53.226;10.400;2023-05-14T05:12:29;8.20;;;6.07;;
51312;SDS011;37397;53.226;10.400;2023-05-14T05:14:57;7.80;;;5.80;;
51312;SDS011;37397;53.226;10.400;2023-05-14T05:17:24;12.75;;;6.07;;
51312;SDS011;37397;53.226;10.400;2023-05-14T05:19:51;9.32;;;5.95;;
51312;SDS011;37397;53.226;10.400;2023-05-14T05:22:17;9.02;;;5.90;;
51312;SDS011;37397;53.226;10.400;2023-05-14T05:24:45;10.85;;;6.20;;
51312;SDS011;37397;53.226;10.400;2023-05-14T05:27:14;9.75;;;6.22;;
51312;SDS011;37397;53.226;10.400;2023-05-14T05:29:40;9.52;;;6.32;;
51312;SDS011;37397;53.226;10.400;2023-05-14T05:32:07;9.77;;;6.03;;
51312;SDS011;37397;53.226;10.400;2023-05-14T05:34:33;11.13;;;6.13;;
51312;SDS011;37397;53.226;10.400;2023-05-14T05:37:01;8.60;;;5.68;;
51312;SDS011;37397;53.226;10.400;2023-05-14T05:39:27;8.70;;;5.90;;
51312;SDS011;37397;53.226;10.400;2023-05-14T05:42:00;9.75;;;6.00;;
51312;SDS011;37397;53.226;10.400;2023-05-14T05:44:30;9.35;;;5.97;;
51312;SDS011;37397;53.226;10.400;2023-05-14T05:46:56;8.73;;;5.78;;
51312;SDS011;37397;53.226;10.400;2023-05-14T05:49:23;7.53;;;5.63;;
51312;SDS011;37397;53.226;10.400;2023-05-14T05:51:49;8.90;;;5.85;;
51312;SDS011;37397;53.226;10.400;2023-05-14T05:54:17;8.05;;;5.82;;
51312;SDS011;37397;53.226;10.400;2023-05-14T05:56:43;9.35;;;5.90;;
51312;SDS011;37397;53.226;10.400;2023-05-14T05:59:10;7.30;;;5.78;;
51312;SDS011;37397;53.226;10.400;2023-05-14T06:01:36;8.63;;;5.75;;
51312;SDS011;37397;53.226;10.400;2023-05-14T06:04:03;8.65;;;5.63;;
51312;SDS011;37397;53.226;10.400;2023-05-14T06:06:31;7.93;;;5.70;;
51312;SDS011;37397;53.226;10.400;2023-05-14T06:08:58;7.95;;;5.85;;
51312;SDS011;37397;53.226;10.400;2023-05-14T06:11:47;9.80;;;5.28;;
51312;SDS011;37397;53.226;10.400;2023-05-14T06:14:14;11.57;;;6.00;;
51312;SDS011;37397;53.226;10.400;2023-05-14T06:16:40;10.07;;;6.00;;
51312;SDS011;37397;53.226;10.400;2023-05-14T06:19:07;9.43;;;5.78;;
51312;SDS011;37397;53.226;10.400;2023-05-14T06:21:33;10.18;;;6.28;;
51312;SDS011;37397;53.226;10.400;2023-05-14T06:24:00;10.23;;;6.05;;
51312;SDS011;37397;53.226;10.400;2023-05-14T06:26:26;10.32;;;6.00;;
51312;SDS011;37397;53.226;10.400;2023-05-14T06:28:53;10.50;;;5.88;;
51312;SDS011;37397;53.226;10.400;2023-05-14T06:31:19;9.57;;;5.90;;
51312;SDS011;37397;53.226;10.400;2023-05-14T06:33:46;8.95;;;5.97;;
51312;SDS011;37397;53.226;10.400;2023-05-14T06:36:12;11.80;;;6.78;;
51312;SDS011;37397;53.226;10.400;2023-05-14T06:38:39;10.40;;;6.10;;
51312;SDS011;37397;53.226;10.400;2023-05-14T06:41:05;9.18;;;6.20;;
51312;SDS011;37397;53.226;10.400;2023-05-14T06:43:32;9.55;;;6.07;;
51312;SDS011;37397;53.226;10.400;2023-05-14T06:45:58;9.18;;;6.07;;
51312;SDS011;37397;53.226;10.400;2023-05-14T06:48:25;7.72;;;5.53;;
51312;SDS011;37397;53.226;10.400;2023-05-14T06:50:53;8.55;;;5.60;;
51312;SDS011;37397;53.226;10.400;2023-05-14T06:53:19;9.13;;;5.88;;
51312;SDS011;37397;53.226;10.400;2023-05-14T06:55:46;9.38;;;5.70;;
51312;SDS011;37397;53.226;10.400;2023-05-14T06:58:13;8.63;;;5.88;;
51312;SDS011;37397;53.226;10.400;2023-05-14T07:00:39;8.40;;;5.47;;
51312;SDS011;37397;53.226;10.400;2023-05-14T07:03:06;9.20;;;5.10;;
51312;SDS011;37397;53.226;10.400;2023-05-14T07:05:32;8.20;;;5.32;;
51312;SDS011;37397;53.226;10.400;2023-05-14T07:07:59;8.23;;;5.78;;
51312;SDS011;37397;53.226;10.400;2023-05-14T07:10:25;7.55;;;5.03;;
51312;SDS011;37397;53.226;10.400;2023-05-14T07:12:52;8.07;;;5.38;;
51312;SDS011;37397;53.226;10.400;2023-05-14T07:15:18;8.63;;;5.30;;
51312;SDS011;37397;53.226;10.400;2023-05-14T07:17:45;10.63;;;5.25;;
51312;SDS011;37397;53.226;10.400;2023-05-14T07:20:12;6.90;;;4.82;;
51312;SDS011;37397;53.226;10.400;2023-05-14T07:22:38;7.78;;;4.93;;
51312;SDS011;37397;53.226;10.400;2023-05-14T07:25:05;6.95;;;4.57;;
51312;SDS011;37397;53.226;10.400;2023-05-14T07:27:31;9.05;;;4.35;;
51312;SDS011;37397;53.226;10.400;2023-05-14T07:29:58;8.88;;;4.70;;
51312;SDS011;37397;53.226;10.400;2023-05-14T07:32:24;6.80;;;4.80;;
51312;SDS011;37397;53.226;10.400;2023-05-14T07:34:51;6.75;;;4.72;;
51312;SDS011;37397;53.226;10.400;2023-05-14T07:37:17;7.80;;;4.80;;
51312;SDS011;37397;53.226;10.400;2023-05-14T07:39:44;7.35;;;4.88;;
51312;SDS011;37397;53.226;10.400;2023-05-14T07:42:10;6.65;;;4.22;;
51312;SDS011;37397;53.226;10.400;2023-05-14T07:44:50;6.55;;;4.63;;
51312;SDS011;37397;53.226;10.400;2023-05-14T07:47:17;7.47;;;4.22;;
51312;SDS011;37397;53.226;10.400;2023-05-14T07:49:43;5.85;;;4.03;;
51312;SDS011;37397;53.226;10.400;2023-05-14T07:52:10;8.82;;;4.35;;
51312;SDS011;37397;53.226;10.400;2023-05-14T07:54:36;9.75;;;4.43;;
51312;SDS011;37397;53.226;10.400;2023-05-14T07:57:03;6.85;;;3.95;;
51312;SDS011;37397;53.226;10.400;2023-05-14T07:59:29;6.85;;;4.20;;
51312;SDS011;37397;53.226;10.400;2023-05-14T08:01:56;8.05;;;4.47;;
51312;SDS011;37397;53.226;10.400;2023-05-14T08:04:23;7.35;;;4.32;;
51312;SDS011;37397;53.226;10.400;2023-05-14T08:06:49;10.52;;;4.20;;
51312;SDS011;37397;53.226;10.400;2023-05-14T08:09:16;6.90;;;4.10;;
51312;SDS011;37397;53.226;10.400;2023-05-14T08:11:42;7.13;;;4.13;;
51312;SDS011;37397;53.226;10.400;2023-05-14T08:14:09;7.53;;;4.40;;
51312;SDS011;37397;53.226;10.400;2023-05-14T08:16:35;8.00;;;4.32;;
51312;SDS011;37397;53.226;10.400;2023-05-14T08:19:02;7.95;;;4.22;;
51312;SDS011;37397;53.226;10.400;2023-05-14T08:21:28;7.65;;;4.93;;
51312;SDS011;37397;53.226;10.400;2023-05-14T08:23:55;6.65;;;4.20;;
51312;SDS011;37397;53.226;10.400;2023-05-14T08:26:21;6.80;;;4.20;;
51312;SDS011;37397;53.226;10.400;2023-05-14T08:28:48;9.43;;;4.30;;
51312;SDS011;37397;53.226;10.400;2023-05-14T08:31:14;7.95;;;4.35;;
51312;SDS011;37397;53.226;10.400;2023-05-14T08:33:41;7.00;;;4.22;;
51312;SDS011;37397;53.226;10.400;2023-05-14T08:36:07;6.50;;;4.28;;
51312;SDS011;37397;53.226;10.400;2023-05-14T08:38:34;8.15;;;4.55;;
51312;SDS011;37397;53.226;10.400;2023-05-14T08:41:00;7.05;;;4.53;;
51312;SDS011;37397;53.226;10.400;2023-05-14T08:44:05;8.43;;;4.55;;
51312;SDS011;37397;53.226;10.400;2023-05-14T08:46:35;8.20;;;4.38;;
51312;SDS011;37397;53.226;10.400;2023-05-14T08:50:04;8.05;;;4.15;;
51312;SDS011;37397;53.226;10.400;2023-05-14T08:52:01;6.80;;;4.25;;
51312;SDS011;37397;53.226;10.400;2023-05-14T08:54:28;8.63;;;4.60;;
51312;SDS011;37397;53.226;10.400;2023-05-14T08:56:57;6.63;;;4.40;;
51312;SDS011;37397;53.226;10.400;2023-05-14T08:59:24;8.15;;;4.70;;
51312;SDS011;37397;53.226;10.400;2023-05-14T09:01:52;5.85;;;3.78;;
51312;SDS011;37397;53.226;10.400;2023-05-14T09:04:20;6.57;;;4.40;;
51312;SDS011;37397;53.226;10.400;2023-05-14T09:06:49;7.30;;;4.18;;
51312;SDS011;37397;53.226;10.400;2023-05-14T09:09:17;6.72;;;4.50;;
51312;SDS011;37397;53.226;10.400;2023-05-14T09:11:50;8.20;;;4.40;;
51312;SDS011;37397;53.226;10.400;2023-05-14T09:14:17;7.78;;;4.30;;
51312;SDS011;37397;53.226;10.400;2023-05-14T09:16:45;7.22;;;4.45;;
51312;SDS011;37397;53.226;10.400;2023-05-14T09:19:13;9.65;;;4.15;;
51312;SDS011;37397;53.226;10.400;2023-05-14T09:21:41;7.22;;;3.80;;
51312;SDS011;37397;53.226;10.400;2023-05-14T09:24:20;8.75;;;4.43;;
51312;SDS011;37397;53.226;10.400;2023-05-14T09:26:57;8.52;;;4.18;;
51312;SDS011;37397;53.226;10.400;2023-05-14T09:29:24;6.93;;;4.13;;
51312;SDS011;37397;53.226;10.400;2023-05-14T09:31:52;6.70;;;4.13;;
51312;SDS011;37397;53.226;10.400;2023-05-14T09:34:26;7.50;;;3.80;;
51312;SDS011;37397;53.226;10.400;2023-05-14T09:37:01;9.65;;;3.90;;
51312;SDS011;37397;53.226;10.400;2023-05-14T09:39:28;6.35;;;3.80;;
51312;SDS011;37397;53.226;10.400;2023-05-14T09:41:56;6.97;;;4.10;;
51312;SDS011;37397;53.226;10.400;2023-05-14T09:44:23;6.57;;;3.83;;
51312;SDS011;37397;53.226;10.400;2023-05-14T09:46:50;10.10;;;3.70;;
51312;SDS011;37397;53.226;10.400;2023-05-14T09:49:17;6.63;;;3.40;;
51312;SDS011;37397;53.226;10.400;2023-05-14T09:51:44;5.25;;;3.40;;
51312;SDS011;37397;53.226;10.400;2023-05-14T09:54:11;5.68;;;3.30;;
51312;SDS011;37397;53.226;10.400;2023-05-14T09:56:38;9.15;;;3.75;;
51312;SDS011;37397;53.226;10.400;2023-05-14T09:59:07;6.25;;;3.40;;
51312;SDS011;37397;53.226;10.400;2023-05-14T10:01:33;8.30;;;3.40;;
51312;SDS011;37397;53.226;10.400;2023-05-14T10:04:02;11.98;;;3.78;;
51312;SDS011;37397;53.226;10.400;2023-05-14T10:06:38;7.05;;;3.50;;
51312;SDS011;37397;53.226;10.400;2023-05-14T10:09:11;10.68;;;3.72;;
51312;SDS011;37397;53.226;10.400;2023-05-14T10:11:41;8.48;;;3.63;;
51312;SDS011;37397;53.226;10.400;2023-05-14T10:14:13;6.28;;;3.63;;
51312;SDS011;37397;53.226;10.400;2023-05-14T10:16:48;6.18;;;3.17;;
51312;SDS011;37397;53.226;10.400;2023-05-14T10:19:17;6.25;;;3.10;;
51312;SDS011;37397;53.226;10.400;2023-05-14T10:21:51;10.68;;;3.80;;
51312;SDS011;37397;53.226;10.400;2023-05-14T10:24:20;5.80;;;3.45;;
51312;SDS011;37397;53.226;10.400;2023-05-14T10:26:48;5.53;;;3.45;;
51312;SDS011;37397;53.226;10.400;2023-05-14T10:29:15;7.78;;;4.05;;
51312;SDS011;37397;53.226;10.400;2023-05-14T10:31:54;6.63;;;3.95;;
51312;SDS011;37397;53.226;10.400;2023-05-14T10:34:30;5.82;;;3.70;;
51312;SDS011;37397;53.226;10.400;2023-05-14T10:36:58;9.80;;;3.97;;
51312;SDS011;37397;53.226;10.400;2023-05-14T10:44:40;7.85;;;3.70;;
51312;SDS011;37397;53.226;10.400;2023-05-14T10:47:12;10.00;;;3.90;;
51312;SDS011;37397;53.226;10.400;2023-05-14T10:49:40;8.13;;;4.40;;
51312;SDS011;37397;53.226;10.400;2023-05-14T10:52:09;6.63;;;3.88;;
51312;SDS011;37397;53.226;10.400;2023-05-14T10:54:37;10.05;;;4.15;;
51312;SDS011;37397;53.226;10.400;2023-05-14T10:57:08;6.22;;;3.92;;
51312;SDS011;37397;53.226;10.400;2023-05-14T10:59:36;8.43;;;4.00;;
51312;SDS011;37397;53.226;10.400;2023-05-14T11:02:17;7.03;;;3.83;;
51312;SDS011;37397;53.226;10.400;2023-05-14T11:04:56;6.60;;;4.10;;
51312;SDS011;37397;53.226;10.400;2023-05-14T11:07:26;8.13;;;4.05;;
51312;SDS011;37397;53.226;10.400;2023-05-14T11:09:58;7.53;;;3.97;;
51312;SDS011;37397;53.226;10.400;2023-05-14T11:12:27;5.57;;;3.95;;
51312;SDS011;37397;53.226;10.400;2023-05-14T11:14:57;7.10;;;3.58;;
51312;SDS011;37397;53.226;10.400;2023-05-14T11:17:26;7.63;;;4.43;;
51312;SDS011;37397;53.226;10.400;2023-05-14T11:19:53;6.70;;;3.88;;
51312;SDS011;37397;53.226;10.400;2023-05-14T11:22:21;10.75;;;3.90;;
51312;SDS011;37397;53.226;10.400;2023-05-14T11:24:48;9.57;;;4.40;;
51312;SDS011;37397;53.226;10.400;2023-05-14T11:27:14;7.25;;;4.18;;
51312;SDS011;37397;53.226;10.400;2023-05-14T11:29:43;9.57;;;3.75;;
51312;SDS011;37397;53.226;10.400;2023-05-14T11:32:11;7.38;;;3.72;;
51312;SDS011;37397;53.226;10.400;2023-05-14T11:34:38;10.05;;;3.90;;
51312;SDS011;37397;53.226;10.400;2023-05-14T11:37:06;6.10;;;3.85;;
51312;SDS011;37397;53.226;10.400;2023-05-14T11:39:35;6.63;;;3.90;;
51312;SDS011;37397;53.226;10.400;2023-05-14T11:42:09;8.90;;;4.03;;
51312;SDS011;37397;53.226;10.400;2023-05-14T11:44:42;8.13;;;4.40;;
51312;SDS011;37397;53.226;10.400;2023-05-14T11:47:11;9.98;;;3.88;;
51312;SDS011;37397;53.226;10.400;2023-05-14T11:49:38;8.25;;;4.00;;
51312;SDS011;37397;53.226;10.400;2023-05-14T11:52:05;8.45;;;3.72;;
51312;SDS011;37397;53.226;10.400;2023-05-14T11:54:32;10.32;;;3.95;;
51312;SDS011;37397;53.226;10.400;2023-05-14T11:57:06;5.00;;;3.40;;
51312;SDS011;37397;53.226;10.400;2023-05-14T11:59:35;10.48;;;4.05;;
51312;SDS011;37397;53.226;10.400;2023-05-14T12:02:03;8.55;;;4.22;;
51312;SDS011;37397;53.226;10.400;2023-05-14T12:04:30;7.10;;;3.80;;
51312;SDS011;37397;53.226;10.400;2023-05-14T12:06:58;8.25;;;3.95;;
51312;SDS011;37397;53.226;10.400;2023-05-14T12:09:25;7.28;;;4.35;;
51312;SDS011;37397;53.226;10.400;2023-05-14T12:11:52;5.70;;;3.97;;
51312;SDS011;37397;53.226;10.400;2023-05-14T12:14:22;5.97;;;4.07;;
51312;SDS011;37397;53.226;10.400;2023-05-14T12:16:49;10.18;;;4.03;;
51312;SDS011;37397;53.226;10.400;2023-05-14T12:19:17;6.45;;;3.60;;
51312;SDS011;37397;53.226;10.400;2023-05-14T12:21:46;8.40;;;4.03;;
51312;SDS011;37397;53.226;10.400;2023-05-14T12:24:16;7.60;;;4.43;;
51312;SDS011;37397;53.226;10.400;2023-05-14T12:26:48;7.07;;;4.00;;
51312;SDS011;37397;53.226;10.400;2023-05-14T12:29:16;9.05;;;4.20;;
51312;SDS011;37397;53.226;10.400;2023-05-14T12:31:45;7.30;;;4.20;;
51312;SDS011;37397;53.226;10.400;2023-05-14T12:34:13;7.50;;;4.22;;
51312;SDS011;37397;53.226;10.400;2023-05-14T12:36:40;5.88;;;3.75;;
51312;SDS011;37397;53.226;10.400;2023-05-14T12:39:07;9.32;;;4.20;;
51312;SDS011;37397;53.226;10.400;2023-05-14T12:41:34;6.90;;;3.83;;
51312;SDS011;37397;53.226;10.400;2023-05-14T12:44:04;6.55;;;4.20;;
51312;SDS011;37397;53.226;10.400;2023-05-14T12:46:31;7.88;;;4.50;;
51312;SDS011;37397;53.226;10.400;2023-05-14T12:48:59;5.53;;;3.83;;
51312;SDS011;37397;53.226;10.400;2023-05-14T12:51:26;8.32;;;4.38;;
51312;SDS011;37397;53.226;10.400;2023-05-14T12:53:52;7.68;;;4.18;;
51312;SDS011;37397;53.226;10.400;2023-05-14T12:56:19;6.82;;;4.28;;
51312;SDS011;37397;53.226;10.400;2023-05-14T12:58:46;8.38;;;4.00;;
51312;SDS011;37397;53.226;10.400;2023-05-14T13:01:13;7.70;;;4.38;;
51312;SDS011;37397;53.226;10.400;2023-05-14T13:03:39;7.43;;;4.00;;
51312;SDS011;37397;53.226;10.400;2023-05-14T13:06:06;8.00;;;4.47;;
51312;SDS011;37397;53.226;10.400;2023-05-14T13:08:33;8.35;;;4.35;;
51312;SDS011;37397;53.226;10.400;2023-05-14T13:11:00;7.35;;;4.13;;
51312;SDS011;37397;53.226;10.400;2023-05-14T13:13:26;6.38;;;4.40;;
51312;SDS011;37397;53.226;10.400;2023-05-14T13:15:53;11.40;;;4.28;;
51312;SDS011;37397;53.226;10.400;2023-05-14T13:18:20;6.63;;;4.15;;
51312;SDS011;37397;53.226;10.400;2023-05-14T13:20:47;6.45;;;4.20;;
51312;SDS011;37397;53.226;10.400;2023-05-14T13:23:13;6.43;;;4.07;;
51312;SDS011;37397;53.226;10.400;2023-05-14T13:25:40;6.22;;;3.80;;
51312;SDS011;37397;53.226;10.400;2023-05-14T13:28:07;6.68;;;3.88;;
51312;SDS011;37397;53.226;10.400;2023-05-14T13:30:33;8.05;;;4.22;;
51312;SDS011;37397;53.226;10.400;2023-05-14T13:33:00;5.55;;;4.10;;
51312;SDS011;37397;53.226;10.400;2023-05-14T13:35:26;7.32;;;4.20;;
51312;SDS011;37397;53.226;10.400;2023-05-14T13:37:54;8.35;;;4.63;;
51312;SDS011;37397;53.226;10.400;2023-05-14T13:40:21;9.10;;;5.20;;
51312;SDS011;37397;53.226;10.400;2023-05-14T13:42:47;12.23;;;7.50;;
51312;SDS011;37397;53.226;10.400;2023-05-14T13:45:14;10.95;;;7.20;;
51312;SDS011;37397;53.226;10.400;2023-05-14T13:47:40;17.48;;;10.52;;
51312;SDS011;37397;53.226;10.400;2023-05-14T13:50:07;16.20;;;11.68;;
51312;SDS011;37397;53.226;10.400;2023-05-14T13:52:34;21.13;;;14.52;;
51312;SDS011;37397;53.226;10.400;2023-05-14T13:55:00;17.98;;;13.85;;
51312;SDS011;37397;53.226;10.400;2023-05-14T13:57:27;19.85;;;13.50;;
51312;SDS011;37397;53.226;10.400;2023-05-14T13:59:53;18.17;;;12.10;;
51312;SDS011;37397;53.226;10.400;2023-05-14T14:02:20;16.77;;;11.05;;
51312;SDS011;37397;53.226;10.400;2023-05-14T14:04:46;15.55;;;10.45;;
51312;SDS011;37397;53.226;10.400;2023-05-14T14:07:14;13.27;;;8.75;;
51312;SDS011;37397;53.226;10.400;2023-05-14T14:09:40;12.90;;;8.73;;
51312;SDS011;37397;53.226;10.400;2023-05-14T14:12:07;13.80;;;7.28;;
51312;SDS011;37397;53.226;10.400;2023-05-14T14:14:34;10.00;;;6.97;;
51312;SDS011;37397;53.226;10.400;2023-05-14T14:17:00;8.57;;;5.55;;
51312;SDS011;37397;53.226;10.400;2023-05-14T14:19:27;10.05;;;6.05;;
51312;SDS011;37397;53.226;10.400;2023-05-14T14:21:53;10.73;;;5.50;;
51312;SDS011;37397;53.226;10.400;2023-05-14T14:24:20;9.68;;;5.30;;
51312;SDS011;37397;53.226;10.400;2023-05-14T14:26:46;9.07;;;4.75;;
51312;SDS011;37397;53.226;10.400;2023-05-14T14:29:12;7.68;;;4.78;;
51312;SDS011;37397;53.226;10.400;2023-05-14T14:31:39;8.07;;;4.95;;
51312;SDS011;37397;53.226;10.400;2023-05-14T14:34:05;9.85;;;4.88;;
51312;SDS011;37397;53.226;10.400;2023-05-14T14:36:32;7.97;;;4.50;;
51312;SDS011;37397;53.226;10.400;2023-05-14T14:38:58;8.60;;;4.50;;
51312;SDS011;37397;53.226;10.400;2023-05-14T14:41:25;7.25;;;4.28;;
51312;SDS011;37397;53.226;10.400;2023-05-14T14:43:52;8.23;;;4.80;;
51312;SDS011;37397;53.226;10.400;2023-05-14T14:46:19;8.00;;;4.25;;